createdAt,value
2017-09-23T00:02:09.258Z,101476
2017-09-23T00:04:39.156Z,101484
2017-09-23T00:07:09.031Z,101522
2017-09-23T00:09:38.958Z,101527
2017-09-23T00:12:09.186Z,101527
2017-09-23T00:14:39.043Z,101527
2017-09-23T00:17:09.408Z,101526
2017-09-23T00:19:39.271Z,101522
2017-09-23T00:22:09.541Z,101526
2017-09-23T00:24:39.421Z,101526
2017-09-23T00:27:09.366Z,101522
2017-09-23T00:29:39.241Z,101522
2017-09-23T00:32:09.234Z,101521
2017-09-23T00:34:39.526Z,101515
2017-09-23T00:37:09.398Z,101520
2017-09-23T00:39:39.307Z,101523
2017-09-23T00:42:09.179Z,101524
2017-09-23T00:44:39.207Z,101519
2017-09-23T00:47:09.425Z,101520
2017-09-23T00:49:39.274Z,101525
2017-09-23T00:52:09.163Z,101526
2017-09-23T00:54:39.028Z,101516
2017-09-23T00:57:08.935Z,101514
2017-09-23T00:59:39.289Z,101513
2017-09-23T01:02:09.205Z,101524
2017-09-23T01:04:39.427Z,101510
2017-09-23T01:07:09.399Z,101510
2017-09-23T01:09:39.296Z,101507
2017-09-23T01:12:09.172Z,101506
2017-09-23T01:14:39.044Z,101509
2017-09-23T01:17:09.409Z,101502
2017-09-23T01:19:39.280Z,101506
2017-09-23T01:22:09.689Z,101495
2017-09-23T01:24:39.560Z,101501
2017-09-23T01:27:09.855Z,101497
2017-09-23T01:29:39.752Z,101500
2017-09-23T01:32:10.045Z,101511
2017-09-23T01:34:39.912Z,101517
2017-09-23T01:37:10.223Z,101509
2017-09-23T01:39:40.111Z,101511
2017-09-23T01:42:10.358Z,101514
2017-09-23T01:44:40.277Z,101516
2017-09-23T01:47:10.505Z,101513
2017-09-23T01:49:40.381Z,101516
2017-09-23T01:52:10.326Z,101507
2017-09-23T01:54:40.206Z,101507
2017-09-23T01:57:10.877Z,101507
2017-09-23T01:59:41.126Z,101514
2017-09-23T02:02:11.218Z,101511
2017-09-23T02:04:41.429Z,101505
2017-09-23T02:07:11.312Z,101506
2017-09-23T02:09:41.208Z,101514
2017-09-23T02:12:11.235Z,101505
2017-09-23T02:14:41.107Z,101508
2017-09-23T02:17:11.622Z,101509
2017-09-23T02:19:41.546Z,101509
2017-09-23T02:22:11.873Z,101503
2017-09-23T02:24:41.834Z,101506
2017-09-23T02:27:12.099Z,101502
2017-09-23T02:29:41.985Z,101504
2017-09-23T02:32:12.243Z,101502
2017-09-23T02:34:42.110Z,101505
2017-09-23T02:37:12.389Z,101502
2017-09-23T02:39:42.278Z,101505
2017-09-23T02:42:12.258Z,101508
2017-09-23T02:44:42.186Z,101508
2017-09-23T02:47:12.086Z,101512
2017-09-23T02:49:42.313Z,101503
2017-09-23T02:52:12.161Z,101514
2017-09-23T02:54:42.442Z,101511
2017-09-23T02:57:12.450Z,101511
2017-09-23T02:59:42.348Z,101506
2017-09-23T03:02:12.216Z,101511
2017-09-23T03:04:42.114Z,101481
2017-09-23T03:07:12.075Z,101513
2017-09-23T03:09:41.982Z,101514
2017-09-23T03:12:12.269Z,101512
2017-09-23T03:14:42.150Z,101524
2017-09-23T03:17:12.623Z,101521
2017-09-23T03:19:42.516Z,101519
2017-09-23T03:22:12.813Z,101520
2017-09-23T03:24:42.682Z,101524
2017-09-23T03:27:12.960Z,101525
2017-09-23T03:29:42.893Z,101522
2017-09-23T03:32:13.244Z,101507
2017-09-23T03:34:43.182Z,101496
2017-09-23T03:37:13.469Z,101513
2017-09-23T03:39:43.372Z,101521
2017-09-23T03:42:13.878Z,101244
2017-09-23T03:44:43.785Z,101527
2017-09-23T03:47:14.037Z,101529
2017-09-23T03:49:43.932Z,101519
2017-09-23T03:52:14.192Z,101526
2017-09-23T03:54:44.072Z,101529
2017-09-23T03:57:14.295Z,101530
2017-09-23T03:59:44.177Z,101525
2017-09-23T04:02:14.558Z,101530
2017-09-23T04:04:44.433Z,101536
2017-09-23T04:07:14.894Z,101536
2017-09-23T04:09:44.773Z,101539
2017-09-23T04:12:14.989Z,101533
2017-09-23T04:14:44.978Z,101534
2017-09-23T04:17:15.330Z,101531
2017-09-23T04:19:45.262Z,101545
2017-09-23T04:22:15.530Z,101522
2017-09-23T04:24:45.489Z,101542
2017-09-23T04:27:15.895Z,101543
2017-09-23T04:29:45.873Z,101553
2017-09-23T04:32:16.127Z,101539
2017-09-23T04:34:46.023Z,101538
2017-09-23T04:37:16.292Z,101549
2017-09-23T04:39:46.202Z,101538
2017-09-23T04:42:16.553Z,101545
2017-09-23T04:44:46.444Z,101545
2017-09-23T04:47:16.813Z,101545
2017-09-23T04:49:46.756Z,101546
2017-09-23T04:52:17.011Z,101546
2017-09-23T04:54:46.967Z,101555
2017-09-23T04:57:17.245Z,101552
2017-09-23T04:59:47.182Z,101562
2017-09-23T05:02:17.495Z,101565
2017-09-23T05:04:47.394Z,101571
2017-09-23T05:07:17.319Z,101572
2017-09-23T05:09:47.234Z,101572
2017-09-23T05:12:17.223Z,101584
2017-09-23T05:14:47.474Z,101585
2017-09-23T05:17:17.401Z,101591
2017-09-23T05:19:47.327Z,101591
2017-09-23T05:22:17.306Z,101598
2017-09-23T05:24:47.251Z,101597
2017-09-23T05:27:17.505Z,101594
2017-09-23T05:29:47.484Z,101599
2017-09-23T05:32:17.779Z,101595
2017-09-23T05:34:47.705Z,101602
2017-09-23T05:37:17.928Z,101605
2017-09-23T05:39:47.810Z,101606
2017-09-23T05:42:18.120Z,101608
2017-09-23T05:44:48.050Z,101603
2017-09-23T05:47:18.288Z,101600
2017-09-23T05:49:48.180Z,101588
2017-09-23T05:52:18.589Z,101599
2017-09-23T05:54:48.534Z,101605
2017-09-23T05:57:18.971Z,101599
2017-09-23T05:59:48.908Z,101595
2017-09-23T06:02:19.411Z,101531
2017-09-23T06:04:49.329Z,101591
2017-09-23T06:07:19.720Z,101585
2017-09-23T06:09:49.666Z,101591
2017-09-23T06:12:19.936Z,101588
2017-09-23T06:14:49.872Z,101478
2017-09-23T06:17:20.338Z,101588
2017-09-23T06:19:50.252Z,101587
2017-09-23T06:22:20.533Z,101591
2017-09-23T06:24:50.439Z,101589
2017-09-23T06:27:20.762Z,101591
2017-09-23T06:29:50.662Z,101601
2017-09-23T06:32:21.009Z,101594
2017-09-23T06:34:51.018Z,101609
2017-09-23T06:37:21.354Z,101604
2017-09-23T06:39:51.304Z,101604
2017-09-23T06:42:21.593Z,101605
2017-09-23T06:44:51.516Z,101607
2017-09-23T06:47:21.752Z,101609
2017-09-23T06:49:51.686Z,101605
2017-09-23T06:52:21.957Z,101587
2017-09-23T06:54:51.927Z,101624
2017-09-23T06:57:22.301Z,101629
2017-09-23T06:59:52.204Z,101641
2017-09-23T07:02:22.587Z,101635
2017-09-23T07:04:52.524Z,101638
2017-09-23T07:07:22.785Z,101639
2017-09-23T07:09:52.761Z,101638
2017-09-23T07:12:23.155Z,101648
2017-09-23T07:14:53.133Z,101644
2017-09-23T07:17:23.454Z,101648
2017-09-23T07:19:53.377Z,101651
2017-09-23T07:22:23.266Z,101651
2017-09-23T07:24:53.190Z,101646
2017-09-23T07:27:23.127Z,101650
2017-09-23T07:29:53.453Z,101647
2017-09-23T07:32:23.319Z,101639
2017-09-23T07:34:53.252Z,101637
2017-09-23T07:37:23.188Z,101633
2017-09-23T07:39:53.173Z,101634
2017-09-23T07:42:23.555Z,101642
2017-09-23T07:44:53.490Z,101639
2017-09-23T07:47:23.760Z,101642
2017-09-23T07:49:53.661Z,101644
2017-09-23T07:52:24.033Z,101634
2017-09-23T07:54:53.942Z,101640
2017-09-23T07:57:24.276Z,101647
2017-09-23T07:59:54.153Z,101655
2017-09-23T08:02:24.576Z,101657
2017-09-23T08:04:54.499Z,101649
2017-09-23T08:07:24.818Z,101664
2017-09-23T08:09:54.711Z,101648
2017-09-23T08:12:25.045Z,101668
2017-09-23T08:14:54.940Z,101665
2017-09-23T08:17:25.250Z,101656
2017-09-23T08:19:55.199Z,101670
2017-09-23T08:22:25.502Z,101677
2017-09-23T08:24:55.472Z,101686
2017-09-23T08:27:25.386Z,101687
2017-09-23T08:29:55.323Z,101687
2017-09-23T08:32:25.276Z,101692
2017-09-23T08:34:55.640Z,101680
2017-09-23T08:37:25.553Z,101685
2017-09-23T08:39:55.829Z,101683
2017-09-23T08:42:25.723Z,101682
2017-09-23T08:44:56.061Z,101682
2017-09-23T08:47:25.958Z,101684
2017-09-23T08:49:56.255Z,101688
2017-09-23T08:52:26.153Z,101684
2017-09-23T08:54:56.421Z,101681
2017-09-23T08:57:26.302Z,101682
2017-09-23T08:59:56.173Z,101678
2017-09-23T09:02:26.167Z,101682
2017-09-23T09:04:56.108Z,101683
2017-09-23T09:07:26.393Z,101681
2017-09-23T09:09:56.299Z,101681
2017-09-23T09:12:26.727Z,101668
2017-09-23T09:14:56.668Z,101681
2017-09-23T09:17:27.043Z,101681
2017-09-23T09:19:57.034Z,101680
2017-09-23T09:22:27.347Z,101683
2017-09-23T09:24:57.563Z,101686
2017-09-23T09:27:27.828Z,101683
2017-09-23T09:29:57.762Z,101686
2017-09-23T09:32:28.117Z,101680
2017-09-23T09:34:58.020Z,101684
2017-09-23T09:37:28.316Z,101689
2017-09-23T09:39:58.273Z,101680
2017-09-23T09:42:28.824Z,101673
2017-09-23T09:44:58.753Z,101682
2017-09-23T09:47:29.012Z,101677
2017-09-23T09:49:58.928Z,101680
2017-09-23T09:52:29.229Z,101679
2017-09-23T09:54:59.164Z,101685
2017-09-23T09:57:29.491Z,101682
2017-09-23T09:59:59.648Z,101680
2017-09-23T10:02:29.932Z,101681
2017-09-23T10:05:00.019Z,101683
2017-09-23T10:07:30.392Z,101687
2017-09-23T10:10:00.314Z,101680
2017-09-23T10:12:42.597Z,101678
2017-09-23T10:15:12.527Z,101681
2017-09-23T10:17:42.844Z,101676
2017-09-23T10:20:12.871Z,101676
2017-09-23T10:22:43.302Z,101667
2017-09-23T10:25:13.198Z,101662
2017-09-23T10:27:43.628Z,101680
2017-09-23T10:30:13.661Z,101674
2017-09-23T10:32:44.046Z,101670
2017-09-23T10:35:14.040Z,101663
2017-09-23T10:37:44.287Z,101668
2017-09-23T10:40:14.193Z,101649
2017-09-23T10:42:44.502Z,101660
2017-09-23T10:45:15.219Z,101665
2017-09-23T10:47:45.677Z,101657
2017-09-23T10:50:16.258Z,101657
2017-09-23T10:52:46.670Z,101659
2017-09-23T10:55:16.604Z,101661
2017-09-23T10:57:46.956Z,101661
2017-09-23T11:00:16.920Z,101658
2017-09-23T11:02:47.229Z,101667
2017-09-23T11:05:17.191Z,101659
2017-09-23T11:07:48.352Z,101652
2017-09-23T11:10:18.533Z,101650
2017-09-23T11:12:48.949Z,101649
2017-09-23T11:15:19.061Z,101656
2017-09-23T11:17:49.502Z,101647
2017-09-23T11:20:19.424Z,101647
2017-09-23T11:22:49.807Z,101648
2017-09-23T11:25:19.930Z,101641
2017-09-23T11:27:50.322Z,101640
2017-09-23T11:30:21.410Z,101640
2017-09-23T11:32:51.857Z,101641
2017-09-23T11:35:22.368Z,101636
2017-09-23T11:37:52.721Z,101630
2017-09-23T11:40:22.707Z,101629
2017-09-23T11:42:53.678Z,101622
2017-09-23T11:45:23.725Z,101630
2017-09-23T11:47:54.353Z,101629
2017-09-23T11:50:24.314Z,101622
2017-09-23T11:52:54.535Z,101625
2017-09-23T11:55:24.457Z,101624
2017-09-23T11:57:54.416Z,101620
2017-09-23T12:00:24.453Z,101617
2017-09-23T12:02:54.647Z,101614
2017-09-23T12:05:24.935Z,101620
2017-09-23T12:07:54.852Z,101613
2017-09-23T12:10:25.095Z,101621
2017-09-23T12:12:55.086Z,101607
2017-09-23T12:15:25.338Z,101607
2017-09-23T12:17:55.333Z,101608
2017-09-23T12:20:25.603Z,101602
2017-09-23T12:22:55.475Z,101602
2017-09-23T12:25:25.825Z,101605
2017-09-23T12:27:55.734Z,101600
2017-09-23T12:30:26.073Z,101607
2017-09-23T12:32:56.017Z,101597
2017-09-23T12:35:26.413Z,101601
2017-09-23T12:37:56.459Z,101602
2017-09-23T12:40:26.749Z,101613
2017-09-23T12:42:56.957Z,101616
2017-09-23T12:45:27.328Z,101606
2017-09-23T12:47:57.472Z,101613
2017-09-23T12:50:27.887Z,101616
2017-09-23T12:52:57.844Z,101612
2017-09-23T12:55:28.299Z,101602
2017-09-23T12:57:58.279Z,101597
2017-09-23T13:00:29.810Z,101599
2017-09-23T13:03:00.544Z,101597
2017-09-23T13:05:31.004Z,101599
2017-09-23T13:08:00.955Z,101599
2017-09-23T13:10:31.466Z,101603
2017-09-23T13:13:01.427Z,101599
2017-09-23T13:15:31.711Z,101607
2017-09-23T13:18:01.631Z,101598
2017-09-23T13:20:31.893Z,101602
2017-09-23T13:23:01.940Z,101604
2017-09-23T13:25:32.367Z,101605
2017-09-23T13:28:02.446Z,101606
2017-09-23T13:30:32.831Z,101600
2017-09-23T13:33:02.822Z,101601
2017-09-23T13:35:33.166Z,101597
2017-09-23T13:38:03.142Z,101602
2017-09-23T13:40:33.444Z,101592
2017-09-23T13:43:03.360Z,101589
2017-09-23T13:45:33.335Z,101590
2017-09-23T13:48:03.343Z,101594
2017-09-23T13:50:33.227Z,101591
2017-09-23T13:53:03.497Z,101569
2017-09-23T13:55:33.476Z,101596
2017-09-23T13:58:03.767Z,101374
2017-09-23T14:00:33.738Z,101587
2017-09-23T14:03:04.232Z,101580
2017-09-23T14:05:34.174Z,101577
2017-09-23T14:08:04.464Z,101577
2017-09-23T14:10:34.375Z,101582
2017-09-23T14:13:04.372Z,101571
2017-09-23T14:15:34.359Z,101573
2017-09-23T14:18:04.305Z,101566
2017-09-23T14:20:34.719Z,101571
2017-09-23T14:23:04.733Z,101559
2017-09-23T14:25:35.112Z,101563
2017-09-23T14:28:05.036Z,101561
2017-09-23T14:30:35.596Z,101564
2017-09-23T14:33:05.542Z,101570
2017-09-23T14:35:35.810Z,101558
2017-09-23T14:38:05.752Z,101566
2017-09-23T14:40:36.768Z,101571
2017-09-23T14:43:06.718Z,101568
2017-09-23T14:45:37.249Z,101562
2017-09-23T14:48:07.124Z,101563
2017-09-23T14:50:37.403Z,101570
2017-09-23T14:53:08.362Z,101569
2017-09-23T14:55:38.726Z,101573
2017-09-23T14:58:09.676Z,101566
2017-09-23T15:00:40.294Z,101574
2017-09-23T15:03:10.513Z,101573
2017-09-23T15:05:41.060Z,101571
2017-09-23T15:08:10.976Z,101347
2017-09-23T15:10:41.448Z,101575
2017-09-23T15:13:11.440Z,101570
2017-09-23T15:15:41.953Z,101566
2017-09-23T15:18:11.917Z,101569
2017-09-23T15:20:42.227Z,101314
2017-09-23T15:23:12.835Z,101569
2017-09-23T15:25:43.164Z,101570
2017-09-23T15:28:13.137Z,101571
2017-09-23T15:30:43.495Z,101562
2017-09-23T15:33:13.453Z,101572
2017-09-23T15:35:43.871Z,101570
2017-09-23T15:38:13.849Z,101573
2017-09-23T15:40:44.138Z,101570
2017-09-23T15:43:14.111Z,101568
2017-09-23T15:45:44.625Z,101565
2017-09-23T15:48:14.543Z,101571
2017-09-23T15:50:44.891Z,101583
2017-09-23T15:53:14.890Z,101570
2017-09-23T15:55:45.321Z,101577
2017-09-23T15:58:15.342Z,101578
2017-09-23T16:00:45.639Z,101540
2017-09-23T16:03:15.614Z,101575
2017-09-23T16:05:45.887Z,101581
2017-09-23T16:08:15.800Z,101587
2017-09-23T16:10:46.085Z,101581
2017-09-23T16:13:16.594Z,101580
2017-09-23T16:15:46.918Z,101586
2017-09-23T16:18:16.872Z,101588
2017-09-23T16:20:47.166Z,101582
2017-09-23T16:23:17.090Z,101585
2017-09-23T16:25:47.668Z,101595
2017-09-23T16:28:17.645Z,101598
2017-09-23T16:30:48.116Z,101604
2017-09-23T16:33:18.029Z,101602
2017-09-23T16:35:48.266Z,101599
2017-09-23T16:38:18.230Z,101604
2017-09-23T16:40:49.119Z,101615
2017-09-23T16:43:19.189Z,101609
2017-09-23T16:45:49.451Z,101615
2017-09-23T16:48:19.515Z,101603
2017-09-23T16:50:50.406Z,101607
2017-09-23T16:53:20.279Z,101607
2017-09-23T16:55:50.602Z,101605
2017-09-23T16:58:20.555Z,101614
2017-09-23T17:00:50.921Z,101605
2017-09-23T17:03:20.847Z,101604
2017-09-23T17:05:51.138Z,101616
2017-09-23T17:08:21.089Z,101614
2017-09-23T17:10:51.326Z,101615
2017-09-23T17:13:21.235Z,101613
2017-09-23T17:15:51.613Z,101616
2017-09-23T17:18:21.506Z,101616
2017-09-23T17:20:51.783Z,101617
2017-09-23T17:23:21.742Z,101620
2017-09-23T17:25:52.054Z,101617
2017-09-23T17:28:21.954Z,101615
2017-09-23T17:30:52.291Z,101612
2017-09-23T17:33:22.230Z,101616
2017-09-23T17:35:52.523Z,101613
2017-09-23T17:38:23.299Z,101615
2017-09-23T17:40:54.283Z,101621
2017-09-23T17:43:24.265Z,101618
2017-09-23T17:45:54.616Z,101613
2017-09-23T17:48:24.694Z,101616
2017-09-23T17:50:55.056Z,101615
2017-09-23T17:53:25.119Z,101613
2017-09-23T17:55:55.575Z,101612
2017-09-23T17:58:25.590Z,101621
2017-09-23T18:00:55.998Z,101620
2017-09-23T18:03:26.045Z,101617
2017-09-23T18:05:57.103Z,101619
2017-09-23T18:08:27.194Z,101617
2017-09-23T18:10:57.503Z,101614
2017-09-23T18:13:27.491Z,101613
2017-09-23T18:15:57.774Z,101625
2017-09-23T18:18:27.695Z,101620
2017-09-23T18:20:58.042Z,101626
2017-09-23T18:23:28.041Z,101632
2017-09-23T18:25:58.336Z,101627
2017-09-23T18:28:28.200Z,101630
2017-09-23T18:30:58.570Z,101631
2017-09-23T18:33:28.491Z,101634
2017-09-23T18:35:58.801Z,101630
2017-09-23T18:38:28.721Z,101639
2017-09-23T18:40:59.080Z,101632
2017-09-23T18:43:28.939Z,101627
2017-09-23T18:45:59.365Z,101622
2017-09-23T18:48:29.290Z,101626
2017-09-23T18:50:59.784Z,101625
2017-09-23T18:53:29.668Z,101623
2017-09-23T18:55:59.963Z,101622
2017-09-23T18:58:30.097Z,101615
2017-09-23T19:01:00.405Z,101615
2017-09-23T19:03:30.296Z,101619
2017-09-23T19:06:00.208Z,101619
2017-09-23T19:08:30.094Z,101624
2017-09-23T19:10:59.962Z,101628
2017-09-23T19:13:30.306Z,101635
2017-09-23T19:16:00.224Z,101621
2017-09-23T19:18:30.666Z,101629
2017-09-23T19:21:00.578Z,101636
2017-09-23T19:23:30.847Z,101633
2017-09-23T19:26:00.747Z,101638
2017-09-23T19:28:31.015Z,101632
2017-09-23T19:31:00.935Z,101642
2017-09-23T19:33:31.442Z,101639
2017-09-23T19:36:01.375Z,101642
2017-09-23T19:38:31.308Z,101639
2017-09-23T19:41:01.196Z,101638
2017-09-23T19:43:31.100Z,101631
2017-09-23T19:46:01.362Z,101634
2017-09-23T19:48:31.291Z,101636
2017-09-23T19:51:01.546Z,101632
2017-09-23T19:53:31.483Z,101630
2017-09-23T19:56:01.720Z,101625
2017-09-23T19:58:31.794Z,101616
2017-09-23T20:01:02.169Z,101621
2017-09-23T20:03:32.101Z,101623
2017-09-23T20:06:02.347Z,101624
2017-09-23T20:08:32.277Z,101622
2017-09-23T20:11:03.093Z,101629
2017-09-23T20:13:33.058Z,101630
2017-09-23T20:16:03.399Z,101632
2017-09-23T20:18:33.416Z,101634
2017-09-23T20:21:03.882Z,101637
2017-09-23T20:23:33.919Z,101624
2017-09-23T20:26:04.185Z,101631
2017-09-23T20:28:34.081Z,101627
2017-09-23T20:31:04.602Z,101570
2017-09-23T20:33:34.548Z,101625
2017-09-23T20:36:04.948Z,101622
2017-09-23T20:38:34.917Z,101632
2017-09-23T20:41:05.373Z,101635
2017-09-23T20:43:35.353Z,101631
2017-09-23T20:46:05.704Z,101637
2017-09-23T20:48:35.729Z,101641
2017-09-23T20:51:06.097Z,101636
2017-09-23T20:53:36.042Z,101645
2017-09-23T20:56:06.358Z,101637
2017-09-23T20:58:36.310Z,101636
2017-09-23T21:01:06.618Z,101637
2017-09-23T21:03:36.709Z,101631
2017-09-23T21:06:07.166Z,101637
2017-09-23T21:08:37.139Z,101630
2017-09-23T21:11:07.531Z,101637
2017-09-23T21:13:37.564Z,101626
2017-09-23T21:16:07.836Z,101634
2017-09-23T21:18:37.790Z,101638
2017-09-23T21:21:08.112Z,101639
2017-09-23T21:23:38.025Z,101645
2017-09-23T21:26:08.344Z,101638
2017-09-23T21:28:38.501Z,101638
2017-09-23T21:31:08.603Z,101640
2017-09-23T21:33:38.586Z,101641
2017-09-23T21:36:08.914Z,101645
2017-09-23T21:38:38.829Z,101635
2017-09-23T21:41:09.144Z,101643
2017-09-23T21:43:39.124Z,101634
2017-09-23T21:46:09.643Z,101640
2017-09-23T21:48:39.787Z,101636
2017-09-23T21:51:10.153Z,101634
2017-09-23T21:53:40.168Z,101632
2017-09-23T21:56:10.561Z,101538
2017-09-23T21:58:40.588Z,101628
2017-09-23T22:01:11.938Z,101633
2017-09-23T22:03:41.837Z,101630
2017-09-23T22:06:12.494Z,101631
2017-09-23T22:08:42.457Z,101616
2017-09-23T22:11:13.753Z,101621
2017-09-23T22:13:43.747Z,101620
2017-09-23T22:16:14.068Z,101623
2017-09-23T22:18:44.027Z,101614
2017-09-23T22:21:14.393Z,101608
2017-09-23T22:23:44.403Z,101609
2017-09-23T22:26:14.318Z,101614
2017-09-23T22:28:44.326Z,101616
2017-09-23T22:31:14.287Z,101606
2017-09-23T22:33:44.615Z,101606
2017-09-23T22:36:14.600Z,101605
2017-09-23T22:38:45.765Z,101599
2017-09-23T22:41:15.660Z,101602
2017-09-23T22:43:45.909Z,101590
2017-09-23T22:46:15.756Z,101594
2017-09-23T22:48:46.204Z,101594
2017-09-23T22:51:16.171Z,101600
2017-09-23T22:53:47.075Z,101598
2017-09-23T22:56:16.972Z,101596
2017-09-23T22:58:47.541Z,101595
2017-09-23T23:01:17.515Z,101602
2017-09-23T23:03:47.946Z,101598
2017-09-23T23:06:17.863Z,101592
2017-09-23T23:08:48.157Z,101593
2017-09-23T23:11:18.343Z,101587
2017-09-23T23:13:48.617Z,101594
2017-09-23T23:16:18.578Z,101602
2017-09-23T23:18:48.827Z,101593
2017-09-23T23:21:18.844Z,101596
2017-09-23T23:23:49.428Z,101601
2017-09-23T23:26:19.443Z,101599
2017-09-23T23:28:49.849Z,101602
2017-09-23T23:31:19.814Z,101605
2017-09-23T23:33:50.064Z,101607
2017-09-23T23:36:19.972Z,101599
2017-09-23T23:38:50.298Z,101589
2017-09-23T23:41:20.197Z,101595
2017-09-23T23:43:50.550Z,101601
2017-09-23T23:46:20.485Z,101593
2017-09-23T23:48:50.732Z,101595
2017-09-23T23:51:20.648Z,101597
2017-09-23T23:53:50.934Z,101602
2017-09-23T23:56:20.838Z,101597
2017-09-23T23:58:51.162Z,101607
